sensor_id;sensor_type;location;lat;lon;timestamp;P1;durP1;ratioP1;P2;durP2;ratioP2
3677;SDS011;1855;50.934;6.958;2022-10-15T00:01:06;3.17;;;2.97;;
3677;SDS011;1855;50.934;6.958;2022-10-15T00:03:34;3.10;;;2.80;;
3677;SDS011;1855;50.934;6.958;2022-10-15T00:06:05;3.00;;;2.80;;
3677;SDS011;1855;50.934;6.958;2022-10-15T00:08:33;3.38;;;3.08;;
3677;SDS011;1855;50.934;6.958;2022-10-15T00:11:01;3.13;;;2.83;;
3677;SDS011;1855;50.934;6.958;2022-10-15T00:13:30;3.50;;;3.20;;
3677;SDS011;1855;50.934;6.958;2022-10-15T00:15:58;3.00;;;2.80;;
3677;SDS011;1855;50.934;6.958;2022-10-15T00:18:25;3.30;;;3.10;;
3677;SDS011;1855;50.934;6.958;2022-10-15T00:20:52;3.10;;;2.90;;
3677;SDS011;1855;50.934;6.958;2022-10-15T00:23:18;3.28;;;3.08;;
3677;SDS011;1855;50.934;6.958;2022-10-15T00:25:45;3.50;;;3.20;;
3677;SDS011;1855;50.934;6.958;2022-10-15T00:28:12;3.05;;;2.83;;
3677;SDS011;1855;50.934;6.958;2022-10-15T00:30:40;3.30;;;3.00;;
3677;SDS011;1855;50.934;6.958;2022-10-15T00:33:07;3.40;;;3.10;;
3677;SDS011;1855;50.934;6.958;2022-10-15T00:35:33;3.30;;;3.00;;
3677;SDS011;1855;50.934;6.958;2022-10-15T00:38:00;3.15;;;2.95;;
3677;SDS011;1855;50.934;6.958;2022-10-15T00:40:27;3.83;;;3.53;;
3677;SDS011;1855;50.934;6.958;2022-10-15T00:42:53;4.30;;;3.90;;
3677;SDS011;1855;50.934;6.958;2022-10-15T00:45:20;4.30;;;4.00;;
3677;SDS011;1855;50.934;6.958;2022-10-15T00:47:48;4.43;;;4.13;;
3677;SDS011;1855;50.934;6.958;2022-10-15T00:50:17;3.80;;;3.60;;
3677;SDS011;1855;50.934;6.958;2022-10-15T00:52:48;3.70;;;3.40;;
3677;SDS011;1855;50.934;6.958;2022-10-15T00:55:24;3.97;;;3.67;;
3677;SDS011;1855;50.934;6.958;2022-10-15T00:57:53;3.63;;;3.33;;
3677;SDS011;1855;50.934;6.958;2022-10-15T01:00:22;3.80;;;3.50;;
3677;SDS011;1855;50.934;6.958;2022-10-15T01:02:50;3.58;;;3.28;;
3677;SDS011;1855;50.934;6.958;2022-10-15T01:05:17;3.80;;;3.50;;
3677;SDS011;1855;50.934;6.958;2022-10-15T01:07:44;4.63;;;3.80;;
3677;SDS011;1855;50.934;6.958;2022-10-15T01:10:10;4.30;;;4.00;;
3677;SDS011;1855;50.934;6.958;2022-10-15T01:12:41;4.53;;;4.22;;
3677;SDS011;1855;50.934;6.958;2022-10-15T01:15:24;4.70;;;4.20;;
3677;SDS011;1855;50.934;6.958;2022-10-15T01:17:57;4.70;;;4.30;;
3677;SDS011;1855;50.934;6.958;2022-10-15T01:20:49;5.07;;;4.68;;
3677;SDS011;1855;50.934;6.958;2022-10-15T01:26:33;5.30;;;4.80;;
3677;SDS011;1855;50.934;6.958;2022-10-15T01:29:30;5.23;;;4.77;;
3677;SDS011;1855;50.934;6.958;2022-10-15T01:32:16;5.90;;;4.75;;
3677;SDS011;1855;50.934;6.958;2022-10-15T01:34:49;4.97;;;4.57;;
3677;SDS011;1855;50.934;6.958;2022-10-15T01:37:23;4.57;;;4.28;;
3677;SDS011;1855;50.934;6.958;2022-10-15T01:39:58;4.70;;;4.40;;
3677;SDS011;1855;50.934;6.958;2022-10-15T01:42:31;4.20;;;3.90;;
3677;SDS011;1855;50.934;6.958;2022-10-15T01:45:05;4.90;;;4.50;;
3677;SDS011;1855;50.934;6.958;2022-10-15T01:47:38;4.87;;;4.57;;
3677;SDS011;1855;50.934;6.958;2022-10-15T01:50:08;5.10;;;4.70;;
3677;SDS011;1855;50.934;6.958;2022-10-15T01:52:37;4.80;;;4.40;;
3677;SDS011;1855;50.934;6.958;2022-10-15T01:55:07;5.25;;;4.95;;
3677;SDS011;1855;50.934;6.958;2022-10-15T01:57:36;5.20;;;4.80;;
3677;SDS011;1855;50.934;6.958;2022-10-15T02:00:06;5.50;;;5.00;;
3677;SDS011;1855;50.934;6.958;2022-10-15T02:02:33;6.20;;;5.70;;
3677;SDS011;1855;50.934;6.958;2022-10-15T02:05:02;5.80;;;5.40;;
3677;SDS011;1855;50.934;6.958;2022-10-15T02:07:32;5.90;;;5.40;;
3677;SDS011;1855;50.934;6.958;2022-10-15T02:10:12;6.10;;;5.60;;
3677;SDS011;1855;50.934;6.958;2022-10-15T02:12:46;6.77;;;6.17;;
3677;SDS011;1855;50.934;6.958;2022-10-15T02:15:22;6.65;;;6.05;;
3677;SDS011;1855;50.934;6.958;2022-10-15T02:18:01;6.95;;;6.35;;
3677;SDS011;1855;50.934;6.958;2022-10-15T02:20:31;6.40;;;5.80;;
3677;SDS011;1855;50.934;6.958;2022-10-15T02:23:07;6.30;;;5.90;;
3677;SDS011;1855;50.934;6.958;2022-10-15T02:25:38;7.20;;;6.50;;
3677;SDS011;1855;50.934;6.958;2022-10-15T02:28:07;7.40;;;6.90;;
3677;SDS011;1855;50.934;6.958;2022-10-15T02:30:36;7.80;;;7.20;;
3677;SDS011;1855;50.934;6.958;2022-10-15T02:33:06;6.90;;;6.40;;
3677;SDS011;1855;50.934;6.958;2022-10-15T02:35:35;6.50;;;6.00;;
3677;SDS011;1855;50.934;6.958;2022-10-15T02:38:04;6.63;;;6.13;;
3677;SDS011;1855;50.934;6.958;2022-10-15T02:40:33;7.17;;;6.67;;
3677;SDS011;1855;50.934;6.958;2022-10-15T02:43:03;7.22;;;6.63;;
3677;SDS011;1855;50.934;6.958;2022-10-15T02:45:31;6.93;;;6.33;;
3677;SDS011;1855;50.934;6.958;2022-10-15T02:47:58;7.23;;;6.63;;
3677;SDS011;1855;50.934;6.958;2022-10-15T02:50:26;7.37;;;6.77;;
3677;SDS011;1855;50.934;6.958;2022-10-15T02:52:53;6.75;;;6.20;;
3677;SDS011;1855;50.934;6.958;2022-10-15T02:55:20;6.70;;;6.10;;
3677;SDS011;1855;50.934;6.958;2022-10-15T02:57:46;7.20;;;6.50;;
3677;SDS011;1855;50.934;6.958;2022-10-15T03:00:13;6.63;;;6.03;;
3677;SDS011;1855;50.934;6.958;2022-10-15T03:02:42;6.10;;;5.60;;
3677;SDS011;1855;50.934;6.958;2022-10-15T03:05:09;6.40;;;5.90;;
3677;SDS011;1855;50.934;6.958;2022-10-15T03:07:37;6.00;;;5.60;;
3677;SDS011;1855;50.934;6.958;2022-10-15T03:10:04;6.07;;;5.60;;
3677;SDS011;1855;50.934;6.958;2022-10-15T03:12:32;5.90;;;5.50;;
3677;SDS011;1855;50.934;6.958;2022-10-15T03:14:58;5.60;;;5.20;;
3677;SDS011;1855;50.934;6.958;2022-10-15T03:17:25;5.65;;;5.25;;
3677;SDS011;1855;50.934;6.958;2022-10-15T03:19:52;5.70;;;5.20;;
3677;SDS011;1855;50.934;6.958;2022-10-15T03:22:19;5.30;;;4.90;;
3677;SDS011;1855;50.934;6.958;2022-10-15T03:24:47;5.80;;;5.30;;
3677;SDS011;1855;50.934;6.958;2022-10-15T03:27:13;6.10;;;5.60;;
3677;SDS011;1855;50.934;6.958;2022-10-15T03:29:40;5.45;;;5.00;;
3677;SDS011;1855;50.934;6.958;2022-10-15T03:32:07;5.78;;;5.38;;
3677;SDS011;1855;50.934;6.958;2022-10-15T03:34:34;5.80;;;5.40;;
3677;SDS011;1855;50.934;6.958;2022-10-15T03:37:00;6.50;;;6.00;;
3677;SDS011;1855;50.934;6.958;2022-10-15T03:39:27;6.10;;;5.70;;
3677;SDS011;1855;50.934;6.958;2022-10-15T03:41:55;5.72;;;5.32;;
3677;SDS011;1855;50.934;6.958;2022-10-15T03:44:22;5.80;;;5.40;;
3677;SDS011;1855;50.934;6.958;2022-10-15T03:46:48;5.88;;;5.40;;
3677;SDS011;1855;50.934;6.958;2022-10-15T03:49:15;5.72;;;5.22;;
3677;SDS011;1855;50.934;6.958;2022-10-15T03:51:42;6.47;;;5.97;;
3677;SDS011;1855;50.934;6.958;2022-10-15T03:54:09;6.30;;;5.80;;
3677;SDS011;1855;50.934;6.958;2022-10-15T03:56:36;5.50;;;5.10;;
3677;SDS011;1855;50.934;6.958;2022-10-15T03:59:04;6.05;;;5.55;;
3677;SDS011;1855;50.934;6.958;2022-10-15T04:01:30;6.55;;;5.95;;
3677;SDS011;1855;50.934;6.958;2022-10-15T04:03:57;6.20;;;5.70;;
3677;SDS011;1855;50.934;6.958;2022-10-15T04:06:25;6.10;;;5.60;;
3677;SDS011;1855;50.934;6.958;2022-10-15T04:08:51;6.22;;;5.68;;
3677;SDS011;1855;50.934;6.958;2022-10-15T04:11:18;6.03;;;5.43;;
3677;SDS011;1855;50.934;6.958;2022-10-15T04:13:46;6.43;;;5.75;;
3677;SDS011;1855;50.934;6.958;2022-10-15T04:16:15;6.00;;;5.60;;
3677;SDS011;1855;50.934;6.958;2022-10-15T04:18:42;6.35;;;5.85;;
3677;SDS011;1855;50.934;6.958;2022-10-15T04:21:09;5.88;;;5.47;;
3677;SDS011;1855;50.934;6.958;2022-10-15T04:23:36;6.20;;;5.60;;
3677;SDS011;1855;50.934;6.958;2022-10-15T04:26:03;6.00;;;5.50;;
3677;SDS011;1855;50.934;6.958;2022-10-15T04:28:30;6.43;;;5.93;;
3677;SDS011;1855;50.934;6.958;2022-10-15T04:30:57;5.93;;;5.43;;
3677;SDS011;1855;50.934;6.958;2022-10-15T04:33:26;6.13;;;5.63;;
3677;SDS011;1855;50.934;6.958;2022-10-15T04:35:57;6.53;;;6.10;;
3677;SDS011;1855;50.934;6.958;2022-10-15T04:38:24;6.25;;;5.75;;
3677;SDS011;1855;50.934;6.958;2022-10-15T04:40:56;6.43;;;5.90;;
3677;SDS011;1855;50.934;6.958;2022-10-15T04:43:24;6.60;;;6.00;;
3677;SDS011;1855;50.934;6.958;2022-10-15T04:45:54;6.90;;;6.40;;
3677;SDS011;1855;50.934;6.958;2022-10-15T04:48:22;6.87;;;6.27;;
3677;SDS011;1855;50.934;6.958;2022-10-15T04:50:50;6.63;;;6.13;;
3677;SDS011;1855;50.934;6.958;2022-10-15T04:53:17;7.20;;;6.70;;
3677;SDS011;1855;50.934;6.958;2022-10-15T04:55:44;6.87;;;6.37;;
3677;SDS011;1855;50.934;6.958;2022-10-15T04:58:11;7.20;;;6.60;;
3677;SDS011;1855;50.934;6.958;2022-10-15T05:00:38;6.80;;;6.30;;
3677;SDS011;1855;50.934;6.958;2022-10-15T05:03:05;7.45;;;6.85;;
3677;SDS011;1855;50.934;6.958;2022-10-15T05:05:32;6.97;;;6.43;;
3677;SDS011;1855;50.934;6.958;2022-10-15T05:08:00;8.02;;;7.43;;
3677;SDS011;1855;50.934;6.958;2022-10-15T05:10:27;7.45;;;6.95;;
3677;SDS011;1855;50.934;6.958;2022-10-15T05:12:54;7.30;;;6.80;;
3677;SDS011;1855;50.934;6.958;2022-10-15T05:15:21;7.78;;;7.07;;
3677;SDS011;1855;50.934;6.958;2022-10-15T05:17:47;7.35;;;6.75;;
3677;SDS011;1855;50.934;6.958;2022-10-15T05:20:14;7.07;;;6.57;;
3677;SDS011;1855;50.934;6.958;2022-10-15T05:22:41;7.70;;;7.10;;
3677;SDS011;1855;50.934;6.958;2022-10-15T05:25:09;7.40;;;6.80;;
3677;SDS011;1855;50.934;6.958;2022-10-15T05:27:36;7.50;;;6.90;;
3677;SDS011;1855;50.934;6.958;2022-10-15T05:30:03;7.38;;;6.78;;
3677;SDS011;1855;50.934;6.958;2022-10-15T05:32:31;7.10;;;6.50;;
3677;SDS011;1855;50.934;6.958;2022-10-15T05:34:57;7.70;;;7.10;;
3677;SDS011;1855;50.934;6.958;2022-10-15T05:37:24;8.35;;;7.65;;
3677;SDS011;1855;50.934;6.958;2022-10-15T05:39:51;7.65;;;7.10;;
3677;SDS011;1855;50.934;6.958;2022-10-15T05:42:19;8.20;;;7.50;;
3677;SDS011;1855;50.934;6.958;2022-10-15T05:44:46;8.30;;;7.70;;
3677;SDS011;1855;50.934;6.958;2022-10-15T05:47:12;8.27;;;7.57;;
3677;SDS011;1855;50.934;6.958;2022-10-15T05:49:39;8.30;;;7.60;;
3677;SDS011;1855;50.934;6.958;2022-10-15T05:52:06;7.80;;;7.20;;
3677;SDS011;1855;50.934;6.958;2022-10-15T05:54:33;7.70;;;7.00;;
3677;SDS011;1855;50.934;6.958;2022-10-15T05:56:59;7.00;;;6.40;;
3677;SDS011;1855;50.934;6.958;2022-10-15T05:59:28;6.65;;;6.20;;
3677;SDS011;1855;50.934;6.958;2022-10-15T06:01:54;6.00;;;5.50;;
3677;SDS011;1855;50.934;6.958;2022-10-15T06:04:21;6.30;;;5.80;;
3677;SDS011;1855;50.934;6.958;2022-10-15T06:06:48;6.10;;;5.70;;
3677;SDS011;1855;50.934;6.958;2022-10-15T06:09:14;6.60;;;6.10;;
3677;SDS011;1855;50.934;6.958;2022-10-15T06:11:41;6.77;;;6.17;;
3677;SDS011;1855;50.934;6.958;2022-10-15T06:14:08;7.10;;;6.50;;
3677;SDS011;1855;50.934;6.958;2022-10-15T06:16:37;7.30;;;6.60;;
3677;SDS011;1855;50.934;6.958;2022-10-15T06:19:03;7.32;;;6.72;;
3677;SDS011;1855;50.934;6.958;2022-10-15T06:21:30;6.95;;;6.25;;
3677;SDS011;1855;50.934;6.958;2022-10-15T06:23:57;6.03;;;5.63;;
3677;SDS011;1855;50.934;6.958;2022-10-15T06:26:24;6.15;;;5.65;;
3677;SDS011;1855;50.934;6.958;2022-10-15T06:28:51;5.57;;;5.07;;
3677;SDS011;1855;50.934;6.958;2022-10-15T06:31:17;5.60;;;5.20;;
3677;SDS011;1855;50.934;6.958;2022-10-15T06:33:46;5.80;;;5.40;;
3677;SDS011;1855;50.934;6.958;2022-10-15T06:36:12;5.88;;;5.40;;
3677;SDS011;1855;50.934;6.958;2022-10-15T06:38:39;5.80;;;5.40;;
3677;SDS011;1855;50.934;6.958;2022-10-15T06:41:08;5.85;;;5.35;;
3677;SDS011;1855;50.934;6.958;2022-10-15T06:43:35;6.15;;;5.70;;
3677;SDS011;1855;50.934;6.958;2022-10-15T06:46:02;5.70;;;5.20;;
3677;SDS011;1855;50.934;6.958;2022-10-15T06:48:29;5.90;;;5.40;;
3677;SDS011;1855;50.934;6.958;2022-10-15T06:50:58;5.47;;;5.07;;
3677;SDS011;1855;50.934;6.958;2022-10-15T06:53:25;5.20;;;4.80;;
3677;SDS011;1855;50.934;6.958;2022-10-15T06:55:55;5.32;;;4.82;;
3677;SDS011;1855;50.934;6.958;2022-10-15T06:58:21;4.93;;;4.63;;
3677;SDS011;1855;50.934;6.958;2022-10-15T07:00:48;4.50;;;4.20;;
3677;SDS011;1855;50.934;6.958;2022-10-15T07:03:15;4.32;;;4.00;;
3677;SDS011;1855;50.934;6.958;2022-10-15T07:05:42;4.45;;;4.05;;
3677;SDS011;1855;50.934;6.958;2022-10-15T07:08:10;4.80;;;3.90;;
3677;SDS011;1855;50.934;6.958;2022-10-15T07:10:37;3.60;;;3.30;;
3677;SDS011;1855;50.934;6.958;2022-10-15T07:13:03;3.50;;;3.20;;
3677;SDS011;1855;50.934;6.958;2022-10-15T07:15:30;3.40;;;3.10;;
3677;SDS011;1855;50.934;6.958;2022-10-15T07:17:58;3.20;;;2.90;;
3677;SDS011;1855;50.934;6.958;2022-10-15T07:20:26;3.60;;;3.30;;
3677;SDS011;1855;50.934;6.958;2022-10-15T07:22:57;2.70;;;2.50;;
3677;SDS011;1855;50.934;6.958;2022-10-15T07:25:26;3.80;;;3.50;;
3677;SDS011;1855;50.934;6.958;2022-10-15T07:27:53;2.80;;;2.60;;
3677;SDS011;1855;50.934;6.958;2022-10-15T07:30:21;4.30;;;3.10;;
3677;SDS011;1855;50.934;6.958;2022-10-15T07:32:51;3.33;;;3.03;;
3677;SDS011;1855;50.934;6.958;2022-10-15T07:35:18;3.25;;;3.05;;
3677;SDS011;1855;50.934;6.958;2022-10-15T07:37:44;3.70;;;3.10;;
3677;SDS011;1855;50.934;6.958;2022-10-15T07:40:13;2.95;;;2.75;;
3677;SDS011;1855;50.934;6.958;2022-10-15T07:42:41;3.45;;;3.00;;
3677;SDS011;1855;50.934;6.958;2022-10-15T07:45:08;3.20;;;2.90;;
3677;SDS011;1855;50.934;6.958;2022-10-15T07:47:38;3.35;;;3.15;;
3677;SDS011;1855;50.934;6.958;2022-10-15T07:50:06;3.27;;;2.97;;
3677;SDS011;1855;50.934;6.958;2022-10-15T07:52:33;4.78;;;3.10;;
3677;SDS011;1855;50.934;6.958;2022-10-15T07:55:00;3.45;;;3.15;;
3677;SDS011;1855;50.934;6.958;2022-10-15T07:57:27;4.20;;;3.25;;
3677;SDS011;1855;50.934;6.958;2022-10-15T07:59:55;2.95;;;2.75;;
3677;SDS011;1855;50.934;6.958;2022-10-15T08:02:22;2.95;;;2.75;;
3677;SDS011;1855;50.934;6.958;2022-10-15T08:04:49;2.88;;;2.67;;
3677;SDS011;1855;50.934;6.958;2022-10-15T08:07:16;3.15;;;2.80;;
3677;SDS011;1855;50.934;6.958;2022-10-15T08:09:42;2.92;;;2.60;;
3677;SDS011;1855;50.934;6.958;2022-10-15T08:12:09;3.20;;;2.40;;
3677;SDS011;1855;50.934;6.958;2022-10-15T08:14:36;2.65;;;2.40;;
3677;SDS011;1855;50.934;6.958;2022-10-15T08:17:05;2.15;;;1.95;;
3677;SDS011;1855;50.934;6.958;2022-10-15T08:19:33;1.90;;;1.80;;
3677;SDS011;1855;50.934;6.958;2022-10-15T08:22:00;3.30;;;2.00;;
3677;SDS011;1855;50.934;6.958;2022-10-15T08:24:27;2.15;;;2.00;;
3677;SDS011;1855;50.934;6.958;2022-10-15T08:26:55;2.05;;;1.90;;
3677;SDS011;1855;50.934;6.958;2022-10-15T08:29:23;2.50;;;2.20;;
3677;SDS011;1855;50.934;6.958;2022-10-15T08:31:50;2.35;;;2.15;;
3677;SDS011;1855;50.934;6.958;2022-10-15T08:34:18;2.55;;;2.35;;
3677;SDS011;1855;50.934;6.958;2022-10-15T08:36:44;2.30;;;2.10;;
3677;SDS011;1855;50.934;6.958;2022-10-15T08:39:11;2.60;;;1.90;;
3677;SDS011;1855;50.934;6.958;2022-10-15T08:41:39;2.80;;;2.03;;
3677;SDS011;1855;50.934;6.958;2022-10-15T08:44:11;3.70;;;2.33;;
3677;SDS011;1855;50.934;6.958;2022-10-15T08:46:45;2.97;;;2.10;;
3677;SDS011;1855;50.934;6.958;2022-10-15T08:49:18;2.07;;;1.70;;
3677;SDS011;1855;50.934;6.958;2022-10-15T08:51:53;2.17;;;1.90;;
3677;SDS011;1855;50.934;6.958;2022-10-15T08:54:26;2.15;;;1.95;;
3677;SDS011;1855;50.934;6.958;2022-10-15T08:57:00;2.70;;;2.40;;
3677;SDS011;1855;50.934;6.958;2022-10-15T08:59:37;2.85;;;2.50;;
3677;SDS011;1855;50.934;6.958;2022-10-15T09:02:12;2.05;;;1.85;;
3677;SDS011;1855;50.934;6.958;2022-10-15T09:04:47;1.88;;;1.77;;
3677;SDS011;1855;50.934;6.958;2022-10-15T09:07:22;2.20;;;1.70;;
3677;SDS011;1855;50.934;6.958;2022-10-15T09:10:08;2.53;;;1.90;;
3677;SDS011;1855;50.934;6.958;2022-10-15T09:12:42;2.30;;;1.90;;
3677;SDS011;1855;50.934;6.958;2022-10-15T09:15:16;2.08;;;1.60;;
3677;SDS011;1855;50.934;6.958;2022-10-15T09:17:45;1.77;;;1.67;;
3677;SDS011;1855;50.934;6.958;2022-10-15T09:20:16;2.33;;;1.60;;
3677;SDS011;1855;50.934;6.958;2022-10-15T09:22:45;1.88;;;1.60;;
3677;SDS011;1855;50.934;6.958;2022-10-15T09:25:16;1.70;;;1.60;;
3677;SDS011;1855;50.934;6.958;2022-10-15T09:27:45;1.30;;;1.20;;
3677;SDS011;1855;50.934;6.958;2022-10-15T09:30:18;2.10;;;1.30;;
3677;SDS011;1855;50.934;6.958;2022-10-15T09:32:53;1.13;;;1.00;;
3677;SDS011;1855;50.934;6.958;2022-10-15T09:35:27;1.50;;;1.20;;
3677;SDS011;1855;50.934;6.958;2022-10-15T09:37:57;1.13;;;1.03;;
3677;SDS011;1855;50.934;6.958;2022-10-15T09:40:38;1.50;;;1.02;;
3677;SDS011;1855;50.934;6.958;2022-10-15T09:43:11;1.10;;;1.00;;
3677;SDS011;1855;50.934;6.958;2022-10-15T09:45:39;1.30;;;1.00;;
3677;SDS011;1855;50.934;6.958;2022-10-15T09:48:11;1.63;;;1.00;;
3677;SDS011;1855;50.934;6.958;2022-10-15T09:50:45;1.10;;;0.90;;
3677;SDS011;1855;50.934;6.958;2022-10-15T09:53:21;1.17;;;0.70;;
3677;SDS011;1855;50.934;6.958;2022-10-15T09:55:57;2.45;;;0.90;;
3677;SDS011;1855;50.934;6.958;2022-10-15T09:58:29;1.60;;;0.90;;
3677;SDS011;1855;50.934;6.958;2022-10-15T10:01:03;1.30;;;0.80;;
3677;SDS011;1855;50.934;6.958;2022-10-15T10:03:31;1.00;;;0.80;;
3677;SDS011;1855;50.934;6.958;2022-10-15T10:06:04;1.10;;;0.98;;
3677;SDS011;1855;50.934;6.958;2022-10-15T10:08:35;1.20;;;1.10;;
3677;SDS011;1855;50.934;6.958;2022-10-15T10:11:05;1.60;;;0.90;;
3677;SDS011;1855;50.934;6.958;2022-10-15T10:13:34;1.25;;;1.15;;
3677;SDS011;1855;50.934;6.958;2022-10-15T10:16:05;1.40;;;0.90;;
3677;SDS011;1855;50.934;6.958;2022-10-15T10:18:35;1.60;;;0.90;;
3677;SDS011;1855;50.934;6.958;2022-10-15T10:21:05;1.07;;;0.77;;
3677;SDS011;1855;50.934;6.958;2022-10-15T10:23:45;1.30;;;0.95;;
3677;SDS011;1855;50.934;6.958;2022-10-15T10:26:12;0.80;;;0.70;;
3677;SDS011;1855;50.934;6.958;2022-10-15T10:28:40;0.90;;;0.70;;
3677;SDS011;1855;50.934;6.958;2022-10-15T10:31:11;0.90;;;0.80;;
3677;SDS011;1855;50.934;6.958;2022-10-15T10:33:41;0.80;;;0.50;;
3677;SDS011;1855;50.934;6.958;2022-10-15T10:36:23;1.00;;;0.60;;
3677;SDS011;1855;50.934;6.958;2022-10-15T10:38:57;1.63;;;0.90;;
3677;SDS011;1855;50.934;6.958;2022-10-15T10:44:19;1.80;;;0.80;;
3677;SDS011;1855;50.934;6.958;2022-10-15T10:46:59;1.00;;;0.80;;
3677;SDS011;1855;50.934;6.958;2022-10-15T10:49:29;1.70;;;0.77;;
3677;SDS011;1855;50.934;6.958;2022-10-15T10:51:58;1.40;;;0.80;;
3677;SDS011;1855;50.934;6.958;2022-10-15T10:54:25;1.00;;;0.80;;
3677;SDS011;1855;50.934;6.958;2022-10-15T10:56:53;1.13;;;0.80;;
3677;SDS011;1855;50.934;6.958;2022-10-15T10:59:24;1.00;;;0.70;;
3677;SDS011;1855;50.934;6.958;2022-10-15T11:01:54;1.57;;;0.70;;
3677;SDS011;1855;50.934;6.958;2022-10-15T11:04:22;0.88;;;0.80;;
3677;SDS011;1855;50.934;6.958;2022-10-15T11:07:00;2.47;;;0.70;;
3677;SDS011;1855;50.934;6.958;2022-10-15T11:09:45;1.30;;;0.60;;
3677;SDS011;1855;50.934;6.958;2022-10-15T11:12:23;1.95;;;0.90;;
3677;SDS011;1855;50.934;6.958;2022-10-15T11:15:02;1.40;;;0.60;;
3677;SDS011;1855;50.934;6.958;2022-10-15T11:17:42;2.00;;;0.90;;
3677;SDS011;1855;50.934;6.958;2022-10-15T11:20:17;0.80;;;0.52;;
3677;SDS011;1855;50.934;6.958;2022-10-15T11:22:54;1.15;;;0.57;;
3677;SDS011;1855;50.934;6.958;2022-10-15T11:25:33;1.10;;;0.60;;
3677;SDS011;1855;50.934;6.958;2022-10-15T11:28:10;1.30;;;0.50;;
3677;SDS011;1855;50.934;6.958;2022-10-15T11:30:49;0.70;;;0.40;;
3677;SDS011;1855;50.934;6.958;2022-10-15T11:33:28;1.10;;;0.40;;
3677;SDS011;1855;50.934;6.958;2022-10-15T11:36:08;1.00;;;0.40;;
3677;SDS011;1855;50.934;6.958;2022-10-15T11:38:50;0.70;;;0.40;;
3677;SDS011;1855;50.934;6.958;2022-10-15T11:41:28;0.60;;;0.40;;
3677;SDS011;1855;50.934;6.958;2022-10-15T11:44:19;1.15;;;0.50;;
3677;SDS011;1855;50.934;6.958;2022-10-15T11:47:11;0.70;;;0.40;;
3677;SDS011;1855;50.934;6.958;2022-10-15T11:49:53;1.10;;;0.50;;
3677;SDS011;1855;50.934;6.958;2022-10-15T11:52:42;1.60;;;0.40;;
3677;SDS011;1855;50.934;6.958;2022-10-15T11:55:23;1.08;;;0.50;;
3677;SDS011;1855;50.934;6.958;2022-10-15T11:57:57;0.80;;;0.40;;
3677;SDS011;1855;50.934;6.958;2022-10-15T12:00:29;0.60;;;0.40;;
3677;SDS011;1855;50.934;6.958;2022-10-15T12:03:00;1.10;;;0.30;;
3677;SDS011;1855;50.934;6.958;2022-10-15T12:05:40;0.80;;;0.80;;
3677;SDS011;1855;50.934;6.958;2022-10-15T12:08:11;0.70;;;0.40;;
3677;SDS011;1855;50.934;6.958;2022-10-15T12:10:45;0.60;;;0.40;;
3677;SDS011;1855;50.934;6.958;2022-10-15T12:13:23;1.20;;;0.40;;
3677;SDS011;1855;50.934;6.958;2022-10-15T12:15:55;1.08;;;0.50;;
3677;SDS011;1855;50.934;6.958;2022-10-15T12:18:34;0.60;;;0.35;;
3677;SDS011;1855;50.934;6.958;2022-10-15T12:23:56;0.70;;;0.38;;
3677;SDS011;1855;50.934;6.958;2022-10-15T12:26:28;0.88;;;0.38;;
3677;SDS011;1855;50.934;6.958;2022-10-15T12:28:57;0.95;;;0.30;;
3677;SDS011;1855;50.934;6.958;2022-10-15T12:34:19;1.25;;;0.40;;
3677;SDS011;1855;50.934;6.958;2022-10-15T12:37:01;1.10;;;0.30;;
3677;SDS011;1855;50.934;6.958;2022-10-15T12:39:29;1.40;;;0.40;;
3677;SDS011;1855;50.934;6.958;2022-10-15T12:41:58;0.90;;;0.38;;
3677;SDS011;1855;50.934;6.958;2022-10-15T12:44:27;1.70;;;0.90;;
3677;SDS011;1855;50.934;6.958;2022-10-15T12:46:55;0.90;;;0.40;;
3677;SDS011;1855;50.934;6.958;2022-10-15T12:55:21;0.90;;;0.50;;
3677;SDS011;1855;50.934;6.958;2022-10-15T12:57:55;0.80;;;0.30;;
3677;SDS011;1855;50.934;6.958;2022-10-15T13:00:29;0.60;;;0.40;;
3677;SDS011;1855;50.934;6.958;2022-10-15T13:03:07;1.08;;;0.50;;
3677;SDS011;1855;50.934;6.958;2022-10-15T13:05:35;0.60;;;0.40;;
3677;SDS011;1855;50.934;6.958;2022-10-15T13:08:04;1.60;;;0.40;;
3677;SDS011;1855;50.934;6.958;2022-10-15T13:10:38;0.90;;;0.40;;
3677;SDS011;1855;50.934;6.958;2022-10-15T13:13:13;0.88;;;0.40;;
3677;SDS011;1855;50.934;6.958;2022-10-15T13:15:48;0.68;;;0.40;;
3677;SDS011;1855;50.934;6.958;2022-10-15T13:18:16;0.70;;;0.40;;
3677;SDS011;1855;50.934;6.958;2022-10-15T13:20:46;1.47;;;0.40;;
3677;SDS011;1855;50.934;6.958;2022-10-15T13:23:16;0.70;;;0.40;;
3677;SDS011;1855;50.934;6.958;2022-10-15T13:25:45;0.60;;;0.30;;
3677;SDS011;1855;50.934;6.958;2022-10-15T13:28:30;0.70;;;0.30;;
3677;SDS011;1855;50.934;6.958;2022-10-15T13:30:58;1.30;;;0.30;;
3677;SDS011;1855;50.934;6.958;2022-10-15T13:33:25;0.60;;;0.30;;
3677;SDS011;1855;50.934;6.958;2022-10-15T13:35:52;1.20;;;0.40;;
3677;SDS011;1855;50.934;6.958;2022-10-15T13:38:20;0.70;;;0.40;;
3677;SDS011;1855;50.934;6.958;2022-10-15T13:40:48;1.10;;;0.40;;
3677;SDS011;1855;50.934;6.958;2022-10-15T13:43:17;0.90;;;0.40;;
3677;SDS011;1855;50.934;6.958;2022-10-15T13:45:47;0.60;;;0.40;;
3677;SDS011;1855;50.934;6.958;2022-10-15T13:48:18;0.60;;;0.40;;
3677;SDS011;1855;50.934;6.958;2022-10-15T13:50:47;1.70;;;0.40;;
3677;SDS011;1855;50.934;6.958;2022-10-15T13:53:19;0.90;;;0.40;;
3677;SDS011;1855;50.934;6.958;2022-10-15T13:55:52;0.75;;;0.35;;
3677;SDS011;1855;50.934;6.958;2022-10-15T13:58:21;0.70;;;0.40;;
3677;SDS011;1855;50.934;6.958;2022-10-15T14:00:52;1.00;;;0.40;;
3677;SDS011;1855;50.934;6.958;2022-10-15T14:03:23;0.70;;;0.40;;
3677;SDS011;1855;50.934;6.958;2022-10-15T14:05:52;1.40;;;0.50;;
3677;SDS011;1855;50.934;6.958;2022-10-15T14:08:24;1.15;;;0.60;;
3677;SDS011;1855;50.934;6.958;2022-10-15T14:10:53;1.70;;;0.70;;
3677;SDS011;1855;50.934;6.958;2022-10-15T14:13:23;0.70;;;0.40;;
3677;SDS011;1855;50.934;6.958;2022-10-15T14:15:52;1.20;;;0.40;;
3677;SDS011;1855;50.934;6.958;2022-10-15T14:18:31;1.42;;;0.82;;
3677;SDS011;1855;50.934;6.958;2022-10-15T14:21:00;1.15;;;0.50;;
3677;SDS011;1855;50.934;6.958;2022-10-15T14:23:28;1.30;;;0.50;;
3677;SDS011;1855;50.934;6.958;2022-10-15T14:25:57;1.23;;;0.40;;
3677;SDS011;1855;50.934;6.958;2022-10-15T14:28:26;0.73;;;0.50;;
3677;SDS011;1855;50.934;6.958;2022-10-15T14:30:56;1.00;;;0.70;;
3677;SDS011;1855;50.934;6.958;2022-10-15T14:33:28;1.00;;;0.60;;
3677;SDS011;1855;50.934;6.958;2022-10-15T14:36:21;1.30;;;0.70;;
3677;SDS011;1855;50.934;6.958;2022-10-15T14:38:50;1.00;;;0.50;;
3677;SDS011;1855;50.934;6.958;2022-10-15T14:41:22;0.77;;;0.50;;
3677;SDS011;1855;50.934;6.958;2022-10-15T14:44:01;1.60;;;0.50;;
3677;SDS011;1855;50.934;6.958;2022-10-15T14:46:43;0.80;;;0.50;;
3677;SDS011;1855;50.934;6.958;2022-10-15T14:49:22;0.80;;;0.50;;
3677;SDS011;1855;50.934;6.958;2022-10-15T14:51:52;0.85;;;0.40;;
3677;SDS011;1855;50.934;6.958;2022-10-15T14:54:33;0.70;;;0.40;;
3677;SDS011;1855;50.934;6.958;2022-10-15T14:57:01;0.80;;;0.50;;
3677;SDS011;1855;50.934;6.958;2022-10-15T14:59:30;1.35;;;0.60;;
3677;SDS011;1855;50.934;6.958;2022-10-15T15:02:03;0.98;;;0.50;;
3677;SDS011;1855;50.934;6.958;2022-10-15T15:04:33;1.30;;;0.50;;
3677;SDS011;1855;50.934;6.958;2022-10-15T15:07:11;0.70;;;0.40;;
3677;SDS011;1855;50.934;6.958;2022-10-15T15:09:40;0.80;;;0.50;;
3677;SDS011;1855;50.934;6.958;2022-10-15T15:12:10;0.80;;;0.55;;
3677;SDS011;1855;50.934;6.958;2022-10-15T15:14:41;1.00;;;0.90;;
3677;SDS011;1855;50.934;6.958;2022-10-15T15:17:12;1.27;;;0.60;;
3677;SDS011;1855;50.934;6.958;2022-10-15T15:19:44;1.03;;;0.50;;
3677;SDS011;1855;50.934;6.958;2022-10-15T15:22:12;1.95;;;0.68;;
3677;SDS011;1855;50.934;6.958;2022-10-15T15:24:40;1.40;;;0.50;;
3677;SDS011;1855;50.934;6.958;2022-10-15T15:27:10;0.70;;;0.50;;
3677;SDS011;1855;50.934;6.958;2022-10-15T15:29:47;1.00;;;0.60;;
3677;SDS011;1855;50.934;6.958;2022-10-15T15:32:16;1.50;;;0.90;;
3677;SDS011;1855;50.934;6.958;2022-10-15T15:34:43;2.42;;;1.20;;
3677;SDS011;1855;50.934;6.958;2022-10-15T15:37:11;1.30;;;0.68;;
3677;SDS011;1855;50.934;6.958;2022-10-15T15:39:40;1.30;;;0.80;;
3677;SDS011;1855;50.934;6.958;2022-10-15T15:42:07;1.00;;;0.90;;
3677;SDS011;1855;50.934;6.958;2022-10-15T15:44:39;1.52;;;1.20;;
3677;SDS011;1855;50.934;6.958;2022-10-15T15:47:06;1.77;;;1.05;;
3677;SDS011;1855;50.934;6.958;2022-10-15T15:49:34;2.25;;;1.10;;
3677;SDS011;1855;50.934;6.958;2022-10-15T15:52:01;2.90;;;1.40;;